This is the latest recevied weather packets stored in our database for station/object F8KGK-5. If no packets are shown the sender has not sent any weather packets the latest 10 day(s).
| Time | Temp. | Humidity | Pressure | Rain* | Wind** | Luminosity | Snow |
|---|---|---|---|---|---|---|---|
| 1787564248 | 22.22° C | 45% | 1010.7 hPa | 0 mm | - | - | - |
| 1787562448 | 21.11° C | 49% | 1011 hPa | 0 mm | - | - | - |
| 1787560650 | 18.33° C | 54% | 1011.1 hPa | 0 mm | - | - | - |
| 1787558849 | 18.33° C | 56% | 1011.1 hPa | 0 mm | - | - | - |
| 1787557050 | 15.56° C | 62% | 1011 hPa | 0 mm | - | - | - |
| 1787555248 | 15° C | 64% | 1011.3 hPa | 0 mm | - | - | - |
| 1787553448 | 14.44° C | 65% | 1011.4 hPa | 0 mm | - | - | - |
| 1787551648 | 14.44° C | 67% | 1011.6 hPa | 0 mm | - | - | - |
| 1787549849 | 14.44° C | 67% | 1011.8 hPa | 0 mm | - | - | - |
| 1787548050 | 14.44° C | 68% | 1012 hPa | 0 mm | - | - | - |
| 1787546247 | 14.44° C | 68% | 1012.1 hPa | 0 mm | - | - | - |
| 1787544448 | 14.44° C | 68% | 1012.4 hPa | 0 mm | - | - | - |
| 1787542648 | 13.89° C | 70% | 1012.6 hPa | 0 mm | - | - | - |
| 1787540848 | 13.89° C | 70% | 1013 hPa | 0 mm | - | - | - |
| 1787539382 | 13.89° C | 70% | 1013 hPa | 0 mm | - | - | - |
| 1787537583 | 13.89° C | 70% | 1013.5 hPa | 0 mm | - | - | - |
| 1787535783 | 13.89° C | 68% | 1013.6 hPa | 0 mm | - | - | - |
| 1787533982 | 14.44° C | 66% | 1013.8 hPa | 0 mm | - | - | - |
| 1787532182 | 15° C | 67% | 1013.8 hPa | 0 mm | - | - | - |
| 1787530383 | 15° C | 68% | 1014 hPa | 0 mm | - | - | - |
| 1787528583 | 15° C | 68% | 1014.3 hPa | 0 mm | - | - | - |
| 1787526783 | 15° C | 67% | 1014.3 hPa | 0 mm | - | - | - |
| 1787524983 | 15.56° C | 65% | 1014.7 hPa | 0 mm | - | - | - |
| 1787523182 | 16.11° C | 63% | 1014.9 hPa | 0 mm | - | - | - |
| 1787521383 | 16.11° C | 61% | 1015.2 hPa | 0 mm | - | - | - |
* Rain latest hour (hover to see other rain measurements)
** Current wind speed in m/s (hover to see current wind gust speed)